createdAt,value
2023-05-09T00:00:26.638Z,0.00
2023-05-09T00:01:26.690Z,0.00
2023-05-09T00:02:26.712Z,0.00
2023-05-09T00:03:26.713Z,0.00
2023-05-09T00:04:26.621Z,0.00
2023-05-09T00:05:26.578Z,0.00
2023-05-09T00:06:26.472Z,0.00
2023-05-09T00:07:26.616Z,0.00
2023-05-09T00:08:26.681Z,0.00
2023-05-09T00:09:26.718Z,0.00
2023-05-09T00:10:26.561Z,0.00
2023-05-09T00:11:26.577Z,0.00
2023-05-09T00:12:26.513Z,0.00
2023-05-09T00:13:26.479Z,0.00
2023-05-09T00:14:26.363Z,0.00
2023-05-09T00:15:26.581Z,0.00
2023-05-09T00:16:26.567Z,0.00
2023-05-09T00:17:26.588Z,0.00
2023-05-09T00:18:26.521Z,0.00
2023-05-09T00:19:26.616Z,0.00
2023-05-09T00:20:26.435Z,0.00
2023-05-09T00:21:26.444Z,0.00
2023-05-09T00:22:26.443Z,0.00
2023-05-09T00:23:26.457Z,0.00
2023-05-09T00:24:26.445Z,0.00
2023-05-09T00:25:26.437Z,0.00
2023-05-09T00:26:26.286Z,0.00
2023-05-09T00:27:26.356Z,0.00
2023-05-09T00:28:26.349Z,0.00
2023-05-09T00:29:26.342Z,0.00
2023-05-09T00:30:26.427Z,0.00
2023-05-09T00:31:26.368Z,0.00
2023-05-09T00:32:26.317Z,0.00
2023-05-09T00:33:26.319Z,0.00
2023-05-09T00:34:26.268Z,0.00
2023-05-09T00:35:26.356Z,0.00
2023-05-09T00:36:26.263Z,0.00
2023-05-09T00:37:26.261Z,0.00
2023-05-09T00:38:26.253Z,0.00
2023-05-09T00:39:26.251Z,0.00
2023-05-09T00:40:26.257Z,0.00
2023-05-09T00:41:26.327Z,0.00
2023-05-09T00:42:26.354Z,0.00
2023-05-09T00:43:26.252Z,0.00
2023-05-09T00:44:26.238Z,0.00
2023-05-09T00:45:26.142Z,0.00
2023-05-09T00:46:26.225Z,0.00
2023-05-09T00:47:26.134Z,0.00
2023-05-09T00:48:26.167Z,0.00
2023-05-09T00:49:26.168Z,0.00
2023-05-09T00:50:26.100Z,0.00
2023-05-09T00:51:26.108Z,0.00
2023-05-09T00:52:26.113Z,0.00
2023-05-09T00:53:26.180Z,0.00
2023-05-09T00:54:26.077Z,0.00
2023-05-09T00:55:26.065Z,0.00
2023-05-09T00:56:26.208Z,0.00
2023-05-09T00:57:26.046Z,0.00
2023-05-09T00:58:25.947Z,0.00
2023-05-09T00:59:25.912Z,0.00
2023-05-09T01:00:26.098Z,0.00
2023-05-09T01:01:26.139Z,0.00
2023-05-09T01:02:26.025Z,0.00
2023-05-09T01:03:26.156Z,0.00
2023-05-09T01:04:25.931Z,0.00
2023-05-09T01:05:25.941Z,0.00
2023-05-09T01:06:25.969Z,0.00
2023-05-09T01:07:25.904Z,0.00
2023-05-09T01:08:25.921Z,0.00
2023-05-09T01:09:25.944Z,0.00
2023-05-09T01:10:25.839Z,0.00
2023-05-09T01:11:25.972Z,0.00
2023-05-09T01:12:25.897Z,0.00
2023-05-09T01:13:25.938Z,0.00
2023-05-09T01:14:25.826Z,0.00
2023-05-09T01:15:25.830Z,0.00
2023-05-09T01:16:25.998Z,0.00
2023-05-09T01:17:25.857Z,0.00
2023-05-09T01:18:25.939Z,0.00
2023-05-09T01:19:25.789Z,0.00
2023-05-09T01:20:25.878Z,0.00
2023-05-09T01:21:25.886Z,0.00
2023-05-09T01:22:25.818Z,0.00
2023-05-09T01:23:25.631Z,0.00
2023-05-09T01:24:25.844Z,0.00
2023-05-09T01:25:25.778Z,0.00
2023-05-09T01:26:25.847Z,0.00
2023-05-09T01:27:25.780Z,0.00
2023-05-09T01:28:25.754Z,0.00
2023-05-09T01:29:25.814Z,0.00
2023-05-09T01:30:25.741Z,0.00
2023-05-09T01:31:25.751Z,0.00
2023-05-09T01:32:25.774Z,0.00
2023-05-09T01:33:25.728Z,0.00
2023-05-09T01:34:25.722Z,0.00
2023-05-09T01:35:25.789Z,0.00
2023-05-09T01:36:25.696Z,0.00
2023-05-09T01:37:25.620Z,0.00
2023-05-09T01:38:25.674Z,0.00
2023-05-09T01:39:25.730Z,0.00
2023-05-09T01:40:25.858Z,0.00
2023-05-09T01:41:25.717Z,0.00
2023-05-09T01:42:25.637Z,0.00
2023-05-09T01:43:25.526Z,0.00
2023-05-09T01:44:25.566Z,0.00
2023-05-09T01:45:25.459Z,0.00
2023-05-09T01:46:25.747Z,0.00
2023-05-09T01:47:25.600Z,0.00
2023-05-09T01:48:25.558Z,0.00
2023-05-09T01:49:25.633Z,0.00
2023-05-09T01:50:25.435Z,0.00
2023-05-09T01:51:25.529Z,0.00
2023-05-09T01:52:25.440Z,0.00
2023-05-09T01:53:25.516Z,0.00
2023-05-09T01:54:25.627Z,0.00
2023-05-09T01:55:25.431Z,0.00
2023-05-09T01:56:25.235Z,0.00
2023-05-09T01:57:25.403Z,0.00
2023-05-09T01:58:25.390Z,0.00
2023-05-09T01:59:25.370Z,0.00
2023-05-09T02:00:25.219Z,0.00
2023-05-09T02:01:25.338Z,0.00
2023-05-09T02:02:25.368Z,0.00
2023-05-09T02:03:25.229Z,0.00
2023-05-09T02:04:25.302Z,0.00
2023-05-09T02:05:25.164Z,0.00
2023-05-09T02:06:25.279Z,0.00
2023-05-09T02:07:25.361Z,0.00
2023-05-09T02:08:25.262Z,0.00
2023-05-09T02:09:25.271Z,0.00
2023-05-09T02:10:25.299Z,0.00
2023-05-09T02:11:25.230Z,0.00
2023-05-09T02:12:25.237Z,0.00
2023-05-09T02:13:25.407Z,0.00
2023-05-09T02:14:25.206Z,0.00
2023-05-09T02:15:25.196Z,0.00
2023-05-09T02:16:25.260Z,0.00
2023-05-09T02:17:25.209Z,0.00
2023-05-09T02:18:25.268Z,0.00
2023-05-09T02:19:24.994Z,0.00
2023-05-09T02:20:25.171Z,0.00
2023-05-09T02:21:26.340Z,0.00
2023-05-09T02:22:25.087Z,0.00
2023-05-09T02:23:25.185Z,0.00
2023-05-09T02:24:25.121Z,0.00
2023-05-09T02:25:25.062Z,0.00
2023-05-09T02:26:25.084Z,0.00
2023-05-09T02:27:25.109Z,0.00
2023-05-09T02:28:25.122Z,0.00
2023-05-09T02:29:25.054Z,0.00
2023-05-09T02:30:25.091Z,0.00
2023-05-09T02:31:24.998Z,0.00
2023-05-09T02:32:25.124Z,0.00
2023-05-09T02:33:25.008Z,0.00
2023-05-09T02:34:25.172Z,0.00
2023-05-09T02:35:24.955Z,0.00
2023-05-09T02:36:24.940Z,0.00
2023-05-09T02:37:24.935Z,0.00
2023-05-09T02:38:24.945Z,0.00
2023-05-09T02:39:24.948Z,0.00
2023-05-09T02:40:24.952Z,0.00
2023-05-09T02:41:24.881Z,0.00
2023-05-09T02:42:24.894Z,0.00
2023-05-09T02:43:24.904Z,0.00
2023-05-09T02:44:24.910Z,0.00
2023-05-09T02:45:24.920Z,0.00
2023-05-09T02:46:24.871Z,0.00
2023-05-09T02:47:24.879Z,0.00
2023-05-09T02:48:24.861Z,0.00
2023-05-09T02:49:32.023Z,0.00
2023-05-09T02:50:24.701Z,0.00
2023-05-09T02:51:24.666Z,0.00
2023-05-09T02:52:24.627Z,0.00
2023-05-09T02:53:24.800Z,0.00
2023-05-09T02:54:24.664Z,0.00
2023-05-09T02:55:24.633Z,0.00
2023-05-09T02:56:24.834Z,0.00
2023-05-09T02:57:24.735Z,0.00
2023-05-09T02:58:24.594Z,0.00
2023-05-09T02:59:24.740Z,0.00
2023-05-09T03:00:24.709Z,0.00
2023-05-09T03:01:24.720Z,1.00
2023-05-09T03:02:24.722Z,0.00
2023-05-09T03:03:24.690Z,1.00
2023-05-09T03:04:24.637Z,1.00
2023-05-09T03:05:24.619Z,1.00
2023-05-09T03:06:24.664Z,0.00
2023-05-09T03:07:24.783Z,0.00
2023-05-09T03:08:24.652Z,2.00
2023-05-09T03:09:24.564Z,1.00
2023-05-09T03:10:24.560Z,1.00
2023-05-09T03:11:24.570Z,3.00
2023-05-09T03:12:24.513Z,4.00
2023-05-09T03:13:24.664Z,2.00
2023-05-09T03:14:24.483Z,6.00
2023-05-09T03:15:24.518Z,2.00
2023-05-09T03:16:24.556Z,4.00
2023-05-09T03:17:24.641Z,2.00
2023-05-09T03:18:24.450Z,6.00
2023-05-09T03:19:24.534Z,6.00
2023-05-09T03:20:24.448Z,6.00
2023-05-09T03:21:24.479Z,7.00
2023-05-09T03:22:24.392Z,6.00
2023-05-09T03:23:24.488Z,10.00
2023-05-09T03:24:24.429Z,9.00
2023-05-09T03:25:24.283Z,12.00
2023-05-09T03:26:24.399Z,17.00
2023-05-09T03:27:24.345Z,20.00
2023-05-09T03:28:24.191Z,23.00
2023-05-09T03:29:24.412Z,22.00
2023-05-09T03:30:24.326Z,24.00
2023-05-09T03:31:24.348Z,33.00
2023-05-09T03:32:24.368Z,38.00
2023-05-09T03:33:24.324Z,42.00
2023-05-09T03:34:24.269Z,45.00
2023-05-09T03:35:24.301Z,54.00
2023-05-09T03:36:24.313Z,54.00
2023-05-09T03:37:26.208Z,62.00
2023-05-09T03:38:24.245Z,66.00
2023-05-09T03:39:24.263Z,66.00
2023-05-09T03:40:24.295Z,70.00
2023-05-09T03:41:24.123Z,84.00
2023-05-09T03:42:24.127Z,89.00
2023-05-09T03:43:24.084Z,99.00
2023-05-09T03:44:24.122Z,107.00
2023-05-09T03:45:24.040Z,123.00
2023-05-09T03:46:24.322Z,135.00
2023-05-09T03:47:24.019Z,144.00
2023-05-09T03:48:24.130Z,152.00
2023-05-09T03:49:24.084Z,158.00
2023-05-09T03:50:23.979Z,162.00
2023-05-09T03:51:24.156Z,161.00
2023-05-09T03:52:24.078Z,164.00
2023-05-09T03:53:24.064Z,165.00
2023-05-09T03:54:24.076Z,168.00
2023-05-09T03:55:24.113Z,169.00
2023-05-09T03:56:24.101Z,178.00
2023-05-09T03:57:24.148Z,184.00
2023-05-09T03:58:24.053Z,191.00
2023-05-09T03:59:24.037Z,194.00
2023-05-09T04:00:23.847Z,200.00
2023-05-09T04:01:24.002Z,195.00
2023-05-09T04:02:24.126Z,194.00
2023-05-09T04:03:24.120Z,197.00
2023-05-09T04:04:23.966Z,207.00
2023-05-09T04:05:23.951Z,227.00
2023-05-09T04:06:23.941Z,259.00
2023-05-09T04:07:24.043Z,301.00
2023-05-09T04:08:23.967Z,289.00
2023-05-09T04:09:23.740Z,271.00
2023-05-09T04:10:23.767Z,283.00
2023-05-09T04:11:23.780Z,291.00
2023-05-09T04:12:23.929Z,291.00
2023-05-09T04:13:24.112Z,298.00
2023-05-09T04:14:23.878Z,310.00
2023-05-09T04:15:23.817Z,314.00
2023-05-09T04:16:23.840Z,315.00
2023-05-09T04:17:23.850Z,314.00
2023-05-09T04:18:23.794Z,321.00
2023-05-09T04:19:23.875Z,318.00
2023-05-09T04:20:23.792Z,321.00
2023-05-09T04:21:23.804Z,322.00
2023-05-09T04:22:23.633Z,329.00
2023-05-09T04:23:23.872Z,334.00
2023-05-09T04:24:23.808Z,339.00
2023-05-09T04:25:23.819Z,349.00
2023-05-09T04:26:23.769Z,366.00
2023-05-09T04:27:23.721Z,390.00
2023-05-09T04:28:23.828Z,390.00
2023-05-09T04:29:23.685Z,400.00
2023-05-09T04:30:23.722Z,420.00
2023-05-09T04:31:23.822Z,234.00
2023-05-09T04:32:23.677Z,746.00
2023-05-09T04:33:23.660Z,527.00
2023-05-09T04:34:23.772Z,646.00
2023-05-09T04:35:23.630Z,579.00
2023-05-09T04:36:23.656Z,573.00
2023-05-09T04:37:23.521Z,599.00
2023-05-09T04:38:23.616Z,617.00
2023-05-09T04:39:23.646Z,642.00
2023-05-09T04:40:24.371Z,708.00
2023-05-09T04:41:23.615Z,731.00
2023-05-09T04:42:23.634Z,725.00
2023-05-09T04:43:23.538Z,737.00
2023-05-09T04:44:23.392Z,749.00
2023-05-09T04:45:23.403Z,770.00
2023-05-09T04:46:25.643Z,815.00
2023-05-09T04:47:23.438Z,848.00
2023-05-09T04:48:23.402Z,878.00
2023-05-09T04:49:23.374Z,896.00
2023-05-09T04:50:23.502Z,940.00
2023-05-09T04:51:23.376Z,960.00
2023-05-09T04:52:23.472Z,1117.00
2023-05-09T04:53:23.538Z,947.00
2023-05-09T04:54:23.407Z,1070.00
2023-05-09T04:55:23.511Z,1108.00
2023-05-09T04:56:23.464Z,1226.00
2023-05-09T04:57:23.381Z,1263.00
2023-05-09T04:58:23.286Z,1296.00
2023-05-09T04:59:23.268Z,1263.00
2023-05-09T05:00:23.298Z,1226.00
2023-05-09T05:01:23.246Z,1267.00
2023-05-09T05:02:23.233Z,1238.00
2023-05-09T05:03:23.306Z,1267.00
2023-05-09T05:04:23.248Z,1277.00
2023-05-09T05:05:25.356Z,1327.00
2023-05-09T05:06:23.275Z,1360.00
2023-05-09T05:07:23.327Z,1403.00
2023-05-09T05:08:23.308Z,1411.00
2023-05-09T05:09:23.229Z,1459.00
2023-05-09T05:10:23.233Z,1501.00
2023-05-09T05:11:23.376Z,1597.00
2023-05-09T05:12:23.212Z,1676.00
2023-05-09T05:13:23.386Z,1714.00
2023-05-09T05:14:23.212Z,1722.00
2023-05-09T05:15:23.126Z,1784.00
2023-05-09T05:16:23.399Z,1818.00
2023-05-09T05:17:23.258Z,1783.00
2023-05-09T05:18:23.290Z,1808.00
2023-05-09T05:19:23.246Z,1876.00
2023-05-09T05:20:23.134Z,1961.00
2023-05-09T05:21:23.276Z,2002.00
2023-05-09T05:22:23.295Z,1935.00
2023-05-09T05:23:23.332Z,2061.00
2023-05-09T05:24:23.115Z,2135.00
2023-05-09T05:25:22.970Z,2300.00
2023-05-09T05:26:23.060Z,2372.00
2023-05-09T05:27:23.207Z,2427.00
2023-05-09T05:28:23.102Z,2606.00
2023-05-09T05:29:23.114Z,2880.00
2023-05-09T05:30:23.128Z,2944.00
2023-05-09T05:31:22.944Z,3140.00
2023-05-09T05:32:23.076Z,3408.00
2023-05-09T05:33:23.233Z,3449.00
2023-05-09T05:34:23.151Z,3060.00
2023-05-09T05:35:23.158Z,3836.00
2023-05-09T05:36:23.181Z,3184.00
2023-05-09T05:37:22.965Z,2923.00
2023-05-09T05:38:22.971Z,2657.00
2023-05-09T05:39:22.913Z,2286.00
2023-05-09T05:40:23.019Z,2100.00
2023-05-09T05:41:22.995Z,1967.00
2023-05-09T05:42:22.942Z,2107.00
2023-05-09T05:43:22.961Z,1769.00
2023-05-09T05:44:22.882Z,2371.00
2023-05-09T05:45:22.901Z,2355.00
2023-05-09T05:46:22.973Z,1904.00
2023-05-09T05:47:22.932Z,1744.00
2023-05-09T05:48:23.006Z,1588.00
2023-05-09T05:49:22.945Z,1601.00
2023-05-09T05:50:22.935Z,1530.00
2023-05-09T05:51:22.930Z,1531.00
2023-05-09T05:52:22.808Z,1573.00
2023-05-09T05:53:22.915Z,1591.00
2023-05-09T05:54:22.970Z,1537.00
2023-05-09T05:55:22.884Z,1622.00
2023-05-09T05:56:22.860Z,1697.00
2023-05-09T05:57:22.913Z,1708.00
2023-05-09T05:58:22.820Z,1750.00
2023-05-09T05:59:22.888Z,1783.00
2023-05-09T06:00:22.821Z,1691.00
2023-05-09T06:01:22.817Z,1800.00
2023-05-09T06:02:22.755Z,1850.00
2023-05-09T06:03:22.870Z,1882.00
2023-05-09T06:04:22.780Z,1893.00
2023-05-09T06:05:22.655Z,1766.00
2023-05-09T06:06:22.669Z,1921.00
2023-05-09T06:07:22.766Z,1928.00
2023-05-09T06:08:22.636Z,1902.00
2023-05-09T06:09:22.754Z,2097.00
2023-05-09T06:10:22.635Z,1964.00
2023-05-09T06:11:22.608Z,2003.00
2023-05-09T06:12:22.708Z,2101.00
2023-05-09T06:13:22.684Z,1941.00
2023-05-09T06:14:22.647Z,2176.00
2023-05-09T06:15:22.759Z,2417.00
2023-05-09T06:16:22.568Z,2230.00
2023-05-09T06:17:22.641Z,2156.00
2023-05-09T06:18:22.533Z,2138.00
2023-05-09T06:19:22.530Z,2244.00
2023-05-09T06:20:22.513Z,2238.00
2023-05-09T06:21:22.623Z,2394.00
2023-05-09T06:22:22.498Z,2373.00
2023-05-09T06:23:22.615Z,2462.00
2023-05-09T06:24:34.420Z,2526.00
2023-05-09T06:25:22.473Z,2786.00
2023-05-09T06:26:22.487Z,2916.00
2023-05-09T06:27:22.441Z,3010.00
2023-05-09T06:28:22.556Z,3270.00
2023-05-09T06:29:22.424Z,3407.00
2023-05-09T06:30:26.393Z,3573.00
2023-05-09T06:31:24.207Z,3612.00
2023-05-09T06:32:22.422Z,3557.00
2023-05-09T06:33:22.537Z,3718.00
2023-05-09T06:34:22.531Z,3794.00
2023-05-09T06:35:22.442Z,3944.00
2023-05-09T06:36:22.412Z,4205.00
2023-05-09T06:37:22.389Z,4436.00
2023-05-09T06:38:22.362Z,4668.00
2023-05-09T06:39:22.452Z,4797.00
2023-05-09T06:40:22.310Z,4746.00
2023-05-09T06:41:22.285Z,4753.00
2023-05-09T06:42:22.248Z,4350.00
2023-05-09T06:43:22.338Z,4865.00
2023-05-09T06:44:22.309Z,5171.00
2023-05-09T06:45:22.465Z,5537.00
2023-05-09T06:46:22.354Z,5915.00
2023-05-09T06:47:22.252Z,6539.00
2023-05-09T06:48:22.182Z,9192.00
2023-05-09T06:49:22.195Z,5746.00
2023-05-09T06:50:22.286Z,9305.00
2023-05-09T06:51:22.215Z,11225.00
2023-05-09T06:52:22.211Z,10677.00
2023-05-09T06:53:22.274Z,11735.00
2023-05-09T06:54:22.181Z,9408.00
2023-05-09T06:55:22.240Z,8017.00
2023-05-09T06:56:22.233Z,7377.00
2023-05-09T06:57:22.128Z,6989.00
2023-05-09T06:58:22.107Z,6143.00
2023-05-09T06:59:22.170Z,6241.00
2023-05-09T07:00:22.103Z,6046.00
2023-05-09T07:01:22.103Z,5897.00
2023-05-09T07:02:22.186Z,7729.00
2023-05-09T07:03:22.064Z,3708.00
2023-05-09T07:04:22.028Z,28589.00
2023-05-09T07:05:22.229Z,8449.00
2023-05-09T07:06:22.032Z,6947.00
2023-05-09T07:07:22.159Z,6888.00
2023-05-09T07:08:22.047Z,8364.00
2023-05-09T07:09:22.001Z,7532.00
2023-05-09T07:10:21.969Z,6583.00
2023-05-09T07:11:22.111Z,5850.00
2023-05-09T07:12:22.011Z,5444.00
2023-05-09T07:13:21.999Z,5248.00
2023-05-09T07:14:21.980Z,5066.00
2023-05-09T07:15:32.978Z,4755.00
2023-05-09T07:16:21.972Z,4712.00
2023-05-09T07:17:23.865Z,4747.00
2023-05-09T07:18:21.882Z,4624.00
2023-05-09T07:19:22.437Z,4538.00
2023-05-09T07:20:21.868Z,4741.00
2023-05-09T07:21:21.874Z,4496.00
2023-05-09T07:22:21.897Z,5306.00
2023-05-09T07:23:21.934Z,2339.00
2023-05-09T07:24:21.852Z,16635.00
2023-05-09T07:25:21.830Z,12956.00
2023-05-09T07:26:21.813Z,5994.00
2023-05-09T07:27:21.882Z,7271.00
2023-05-09T07:28:21.794Z,22613.00
2023-05-09T07:29:21.884Z,32379.00
2023-05-09T07:30:21.744Z,32078.00
2023-05-09T07:31:21.762Z,22709.00
2023-05-09T07:32:21.779Z,24693.00
2023-05-09T07:33:21.804Z,19388.00
2023-05-09T07:34:21.891Z,16571.00
2023-05-09T07:35:21.802Z,4382.00
2023-05-09T07:36:21.777Z,17120.00
2023-05-09T07:37:21.756Z,33478.00
2023-05-09T07:38:21.756Z,19817.00
2023-05-09T07:39:21.757Z,23626.00
2023-05-09T07:40:21.826Z,29982.00
2023-05-09T07:41:21.717Z,38809.00
2023-05-09T07:42:21.698Z,35279.00
2023-05-09T07:43:21.710Z,39558.00
2023-05-09T07:44:21.593Z,31742.00
2023-05-09T07:45:23.744Z,41589.00
2023-05-09T07:46:21.608Z,37577.00
2023-05-09T07:47:21.628Z,33442.00
2023-05-09T07:48:21.546Z,27211.00
2023-05-09T07:49:21.693Z,26880.00
2023-05-09T07:50:21.534Z,24499.00
2023-05-09T07:51:21.618Z,15891.00
2023-05-09T07:52:21.532Z,11125.00
2023-05-09T07:53:21.501Z,8824.00
2023-05-09T07:54:21.483Z,12577.00
2023-05-09T07:55:21.547Z,12400.00
2023-05-09T07:56:21.616Z,11488.00
2023-05-09T07:57:21.510Z,11341.00
2023-05-09T07:58:21.483Z,9114.00
2023-05-09T07:59:21.465Z,9988.00
2023-05-09T08:00:21.486Z,6303.00
2023-05-09T08:01:21.429Z,16309.00
2023-05-09T08:02:21.575Z,10436.00
2023-05-09T08:03:21.516Z,17401.00
2023-05-09T08:04:21.486Z,11187.00
2023-05-09T08:05:21.409Z,10041.00
2023-05-09T08:06:21.514Z,7804.00
2023-05-09T08:07:21.422Z,8210.00
2023-05-09T08:08:21.411Z,14305.00
2023-05-09T08:09:21.398Z,11988.00
2023-05-09T08:10:21.375Z,9013.00
2023-05-09T08:11:21.454Z,12568.00
2023-05-09T08:12:21.447Z,19889.00
2023-05-09T08:13:21.402Z,74062.00
2023-05-09T08:14:21.311Z,61852.00
2023-05-09T08:15:21.321Z,9242.00
2023-05-09T08:16:21.323Z,24429.00
2023-05-09T08:17:21.365Z,17274.00
2023-05-09T08:18:21.303Z,8792.00
2023-05-09T08:19:21.313Z,29688.00
2023-05-09T08:20:21.222Z,14774.00
2023-05-09T08:21:22.278Z,23645.00
2023-05-09T08:22:21.304Z,12978.00
2023-05-09T08:23:21.230Z,13647.00
2023-05-09T08:24:21.198Z,11070.00
2023-05-09T08:25:21.247Z,10769.00
2023-05-09T08:26:21.300Z,12051.00
2023-05-09T08:27:21.215Z,7991.00
2023-05-09T08:28:21.936Z,3421.00
2023-05-09T08:29:21.242Z,17682.00
2023-05-09T08:30:21.176Z,8753.00
2023-05-09T08:31:21.283Z,7511.00
2023-05-09T08:32:21.245Z,5672.00
2023-05-09T08:33:21.156Z,15109.00
2023-05-09T08:34:21.087Z,16475.00
2023-05-09T08:35:21.188Z,20923.00
2023-05-09T08:36:21.117Z,17169.00
2023-05-09T08:37:21.090Z,13571.00
2023-05-09T08:38:21.111Z,12982.00
2023-05-09T08:39:21.119Z,10580.00
2023-05-09T08:40:21.125Z,8729.00
2023-05-09T08:41:21.032Z,8167.00
2023-05-09T08:42:21.296Z,7860.00
2023-05-09T08:43:21.080Z,8660.00
2023-05-09T08:44:20.990Z,7174.00
2023-05-09T08:45:21.084Z,6382.00
2023-05-09T08:46:21.027Z,5633.00
2023-05-09T08:47:21.002Z,5546.00
2023-05-09T08:48:20.993Z,5696.00
2023-05-09T08:49:21.008Z,5263.00
2023-05-09T08:50:21.066Z,5287.00
2023-05-09T08:51:20.941Z,4846.00
2023-05-09T08:52:20.940Z,4442.00
2023-05-09T08:53:20.949Z,3946.00
2023-05-09T08:54:22.797Z,3600.00
2023-05-09T08:55:20.975Z,3470.00
2023-05-09T08:56:20.908Z,3346.00
2023-05-09T08:57:20.914Z,3125.00
2023-05-09T08:58:20.912Z,3038.00
2023-05-09T08:59:20.889Z,3066.00
2023-05-09T09:00:21.277Z,3111.00
2023-05-09T09:01:20.927Z,3189.00
2023-05-09T09:02:20.921Z,3117.00
2023-05-09T09:03:20.877Z,3170.00
2023-05-09T09:04:20.823Z,3090.00
2023-05-09T09:05:39.907Z,3002.00
2023-05-09T09:06:20.873Z,3057.00
2023-05-09T09:07:20.818Z,3232.00
2023-05-09T09:08:20.801Z,3357.00
2023-05-09T09:09:20.664Z,3641.00
2023-05-09T09:10:20.790Z,3882.00
2023-05-09T09:11:20.701Z,4247.00
2023-05-09T09:12:20.780Z,4499.00
2023-05-09T09:13:20.786Z,4590.00
2023-05-09T09:14:20.745Z,4554.00
2023-05-09T09:15:20.648Z,4492.00
2023-05-09T09:16:20.762Z,4626.00
2023-05-09T09:17:20.714Z,5006.00
2023-05-09T09:18:20.671Z,5416.00
2023-05-09T09:19:20.772Z,5448.00
2023-05-09T09:20:20.683Z,5361.00
2023-05-09T09:21:20.598Z,5255.00
2023-05-09T09:22:20.657Z,5057.00
2023-05-09T09:23:20.672Z,4826.00
2023-05-09T09:24:20.713Z,4499.00
2023-05-09T09:25:20.630Z,4386.00
2023-05-09T09:26:20.606Z,4398.00
2023-05-09T09:27:20.584Z,4522.00
2023-05-09T09:28:20.597Z,4463.00
2023-05-09T09:29:20.623Z,4529.00
2023-05-09T09:30:20.624Z,4546.00
2023-05-09T09:31:20.558Z,4623.00
2023-05-09T09:32:20.525Z,4596.00
2023-05-09T09:33:20.476Z,4615.00
2023-05-09T09:34:20.481Z,4809.00
2023-05-09T09:35:20.577Z,4887.00
2023-05-09T09:36:20.481Z,5132.00
2023-05-09T09:37:20.497Z,5709.00
2023-05-09T09:38:20.438Z,5903.00
2023-05-09T09:39:20.304Z,5992.00
2023-05-09T09:40:20.454Z,5776.00
2023-05-09T09:41:20.256Z,7334.00
2023-05-09T09:42:20.496Z,6519.00
2023-05-09T09:43:20.297Z,6307.00
2023-05-09T09:44:20.512Z,7262.00
2023-05-09T09:45:20.420Z,7087.00
2023-05-09T09:46:20.379Z,7137.00
2023-05-09T09:47:20.385Z,7067.00
2023-05-09T09:48:20.368Z,6911.00
2023-05-09T09:49:20.429Z,6599.00
2023-05-09T09:50:20.442Z,8453.00
2023-05-09T09:51:20.362Z,7664.00
2023-05-09T09:52:20.365Z,8325.00
2023-05-09T09:53:20.357Z,8075.00
2023-05-09T09:54:20.366Z,7793.00
2023-05-09T09:55:20.441Z,7483.00
2023-05-09T09:56:20.236Z,8375.00
2023-05-09T09:57:20.225Z,9273.00
2023-05-09T09:58:20.331Z,8812.00
2023-05-09T09:59:20.315Z,8176.00
2023-05-09T10:00:20.296Z,9004.00
2023-05-09T10:01:20.353Z,8448.00
2023-05-09T10:02:20.115Z,7620.00
2023-05-09T10:03:20.083Z,8669.00
2023-05-09T10:04:20.165Z,8018.00
2023-05-09T10:05:20.025Z,12438.00
2023-05-09T10:06:20.175Z,12221.00
2023-05-09T10:07:20.193Z,10474.00
2023-05-09T10:08:20.146Z,8564.00
2023-05-09T10:09:20.120Z,9446.00
2023-05-09T10:10:20.150Z,9535.00
2023-05-09T10:11:19.975Z,8583.00
2023-05-09T10:12:20.069Z,7227.00
2023-05-09T10:13:20.017Z,8986.00
2023-05-09T10:14:20.088Z,6999.00
2023-05-09T10:15:20.193Z,6340.00
2023-05-09T10:16:28.516Z,7582.00
2023-05-09T10:17:20.130Z,5893.00
2023-05-09T10:18:20.385Z,6332.00
2023-05-09T10:19:20.077Z,7580.00
2023-05-09T10:20:20.002Z,6360.00
2023-05-09T10:21:20.093Z,5554.00
2023-05-09T10:22:20.044Z,7519.00
2023-05-09T10:23:19.974Z,8333.00
2023-05-09T10:24:20.052Z,6360.00
2023-05-09T10:25:19.998Z,6847.00
2023-05-09T10:26:19.916Z,8482.00
2023-05-09T10:27:20.052Z,6930.00
2023-05-09T10:28:19.776Z,6354.00
2023-05-09T10:29:20.007Z,6127.00
2023-05-09T10:30:19.911Z,5873.00
2023-05-09T10:31:19.898Z,5505.00
2023-05-09T10:32:20.008Z,5536.00
2023-05-09T10:33:19.876Z,5639.00
2023-05-09T10:34:19.888Z,5768.00
2023-05-09T10:35:19.921Z,5849.00
2023-05-09T10:36:19.825Z,5952.00
2023-05-09T10:37:19.845Z,5874.00
2023-05-09T10:38:19.876Z,6013.00
2023-05-09T10:39:19.808Z,5643.00
2023-05-09T10:40:19.874Z,5498.00
2023-05-09T10:41:19.814Z,5442.00
2023-05-09T10:42:19.744Z,5737.00
2023-05-09T10:43:19.848Z,5977.00
2023-05-09T10:44:19.874Z,5848.00
2023-05-09T10:45:19.723Z,6021.00
2023-05-09T10:46:19.647Z,6160.00
2023-05-09T10:47:19.780Z,6176.00
2023-05-09T10:48:19.682Z,6339.00
2023-05-09T10:49:19.767Z,6712.00
2023-05-09T10:50:19.703Z,6579.00
2023-05-09T10:51:19.705Z,6546.00
2023-05-09T10:52:19.536Z,6582.00
2023-05-09T10:53:19.688Z,6169.00
2023-05-09T10:54:19.685Z,8471.00
2023-05-09T10:55:19.761Z,7291.00
2023-05-09T10:56:19.685Z,7234.00
2023-05-09T10:57:19.594Z,5123.00
2023-05-09T10:58:19.679Z,6028.00
2023-05-09T10:59:19.605Z,5166.00
2023-05-09T11:00:19.609Z,4813.00
2023-05-09T11:01:19.648Z,4803.00
2023-05-09T11:02:19.498Z,4657.00
2023-05-09T11:03:19.730Z,4498.00
2023-05-09T11:04:19.557Z,4457.00
2023-05-09T11:05:19.457Z,4153.00
2023-05-09T11:06:19.387Z,4748.00
2023-05-09T11:07:19.371Z,5017.00
2023-05-09T11:08:19.347Z,5463.00
2023-05-09T11:09:19.312Z,6046.00
2023-05-09T11:10:19.336Z,5539.00
2023-05-09T11:11:19.300Z,5231.00
2023-05-09T11:12:19.328Z,5781.00
2023-05-09T11:13:19.324Z,5221.00
2023-05-09T11:14:19.361Z,5482.00
2023-05-09T11:15:19.288Z,5383.00
2023-05-09T11:16:19.372Z,4776.00
2023-05-09T11:17:19.432Z,4466.00
2023-05-09T11:18:19.351Z,4695.00
2023-05-09T11:19:19.340Z,5091.00
2023-05-09T11:20:19.395Z,5217.00
2023-05-09T11:21:19.291Z,5516.00
2023-05-09T11:22:19.377Z,5211.00
2023-05-09T11:23:19.361Z,5080.00
2023-05-09T11:24:19.317Z,4706.00
2023-05-09T11:25:19.400Z,4817.00
2023-05-09T11:26:19.413Z,4164.00
2023-05-09T11:27:19.283Z,4720.00
2023-05-09T11:28:19.302Z,4341.00
2023-05-09T11:29:19.316Z,4063.00
2023-05-09T11:30:19.267Z,4354.00
2023-05-09T11:31:19.275Z,4445.00
2023-05-09T11:32:19.271Z,3897.00
2023-05-09T11:33:19.226Z,3410.00
2023-05-09T11:34:19.266Z,3272.00
2023-05-09T11:35:19.319Z,3205.00
2023-05-09T11:36:19.229Z,2943.00
2023-05-09T11:37:19.289Z,2528.00
2023-05-09T11:38:19.169Z,2969.00
2023-05-09T11:39:19.200Z,2964.00
2023-05-09T11:40:19.287Z,2778.00
2023-05-09T11:41:19.203Z,2748.00
2023-05-09T11:42:19.150Z,3336.00
2023-05-09T11:43:19.046Z,3554.00
2023-05-09T11:44:19.118Z,3729.00
2023-05-09T11:45:19.101Z,4024.00
2023-05-09T11:46:19.246Z,3664.00
2023-05-09T11:47:19.088Z,3680.00
2023-05-09T11:48:19.103Z,3720.00
2023-05-09T11:49:19.183Z,3756.00
2023-05-09T11:50:18.936Z,3536.00
2023-05-09T11:51:19.175Z,3553.00
2023-05-09T11:52:19.078Z,3616.00
2023-05-09T11:54:19.050Z,3352.00
2023-05-09T11:55:19.535Z,3325.00
2023-05-09T11:56:19.034Z,3635.00
2023-05-09T11:57:18.950Z,3852.00
2023-05-09T11:58:19.039Z,4463.00
2023-05-09T11:59:18.871Z,5052.00
2023-05-09T12:00:18.837Z,4421.00
2023-05-09T12:01:18.849Z,4507.00
2023-05-09T12:02:18.889Z,3666.00
2023-05-09T12:03:19.240Z,3678.00
2023-05-09T12:04:19.084Z,4043.00
2023-05-09T12:05:18.836Z,4335.00
2023-05-09T12:06:18.896Z,4891.00
2023-05-09T12:07:18.756Z,5146.00
2023-05-09T12:08:18.728Z,4845.00
2023-05-09T12:09:18.945Z,5298.00
2023-05-09T12:10:18.895Z,5891.00
2023-05-09T12:11:18.839Z,5339.00
2023-05-09T12:12:18.886Z,5475.00
2023-05-09T12:13:18.936Z,5324.00
2023-05-09T12:14:18.934Z,5647.00
2023-05-09T12:15:19.351Z,5308.00
2023-05-09T12:16:18.942Z,5033.00
2023-05-09T12:17:18.750Z,5211.00
2023-05-09T12:18:18.765Z,5241.00
2023-05-09T12:19:18.932Z,5432.00
2023-05-09T12:20:18.801Z,5551.00
2023-05-09T12:21:18.809Z,5815.00
2023-05-09T12:22:18.699Z,6126.00
2023-05-09T12:23:18.698Z,6000.00
2023-05-09T12:24:18.797Z,5701.00
2023-05-09T12:25:18.786Z,5262.00
2023-05-09T12:26:18.854Z,5548.00